Ilfracombe, United Kingdom
Current Conditions -  °F | °C
As of 12:50 PM on Wednesday 26 Nov 2014 (Local Time) from EGDX Reporting Station
Broken Clouds Broken Clouds  
Wind Chill:   Ceiling: 2400
Heat Index:   Visibility: 6mi
Dew Point:   Wind: 2mph
Humidity: 82%   Direction: 320°NW
Pressure: 29.85"   Gusts: NA
Location:  51.21°N, 4.11°W
Report Text: EGDX 261250Z 32002KT 9999 FEW009 BKN024 09/06 Q1011 WHT
Loading
Personal Weather Stations






























Interactive Weather Map New forecast layout! Learn more

10-Day Weather Forecast

Advertisements
Track Severe Weather on mobile